Terminal Aerodrome Forecast
Issued by NWS Twin Cities, MN

Home | Current Version | Previous Version | Text Only | Print | Product List | Glossary On
Versions: 1 2 3 4 5 6 7 8 9 10 11 12 13 14
662
FTUS43 KMPX 231409 AAA
TAFSTC
TAF AMD
KSTC 231409Z 2314/2412 07007G15KT P6SM SCT020 BKN100
      TEMPO 2314/2316 BKN020
     FM232100 09010KT P6SM SCT100
     FM240100 08008KT P6SM SCT100 BKN200
     FM240900 11009KT P6SM BKN200 WS020/19040KT=

USA.gov is the U.S. government's official web portal to all federal, state and local government web resources and services.